Overview Statistics Trail Chart Weather Telemetry Raw packets
 

This is the latest recevied weather packets stored in our database for station/object 9W2CHF-3. If no packets are shown the sender has not sent any weather packets the latest 10 day(s).

<< 23 24 25 26 27 28 29 >>
Time Temp. Humidity Pressure Rain* Wind** Luminosity Snow
1777029993 33.33° C 75% 1007.8 hPa - - - -
1777028793 35° C 66% 1007.5 hPa - - - -
1777027593 33.89° C 70% 1007.4 hPa - - - -
1777026393 34.44° C 68% 1007.1 hPa - - - -
1777025193 35.56° C 66% 1007.1 hPa - - - -
1777023993 35.56° C 64% 1007.2 hPa - - - -
1777022793 36.11° C 61% 1007.1 hPa - - - -
1777021593 36.11° C 59% 1007.3 hPa - - - -
1777020392 38.89° C 56% 1007 hPa - - - -
1777019192 40° C 51% 1007.1 hPa - - - -
1777017992 38.33° C 53% 1007.1 hPa - - - -
1777016792 37.78° C 54% 1007.1 hPa - - - -
1777015592 37.78° C 52% 1007.3 hPa - - - -
1777014391 38.33° C 49% 1007.4 hPa - - - -
1777013192 39.44° C 48% 1007.2 hPa - - - -
1777012005 39.44° C 49% 1008 hPa - - - -
1777010805 39.44° C 51% 1008.7 hPa - - - -
1777009604 40° C 50% 1008.6 hPa - - - -
1777008404 40.56° C 51% 1009.1 hPa - - - -
1777007204 38.89° C 55% 1009.3 hPa - - - -
1777006004 39.44° C 54% 1009.6 hPa - - - -
1777004804 38.33° C 55% 1009.9 hPa - - - -
1777003604 38.89° C 55% 1010.1 hPa - - - -
1777002404 36.67° C 60% 1010.3 hPa - - - -
1777001204 37.78° C 59% 1010.5 hPa - - - -

* Rain since midnight (hover to see other rain measurements)
** Current wind speed in m/s (hover to see current wind gust speed)